sensor_id;sensor_type;location;lat;lon;timestamp;P1;durP1;ratioP1;P2;durP2;ratioP2
26951;SDS011;14507;52.418;13.398;2022-08-01T00:00:12;4.88;;;2.63;;
26951;SDS011;14507;52.418;13.398;2022-08-01T00:02:38;6.97;;;2.67;;
26951;SDS011;14507;52.418;13.398;2022-08-01T00:05:05;6.43;;;2.40;;
26951;SDS011;14507;52.418;13.398;2022-08-01T00:07:32;4.47;;;2.63;;
26951;SDS011;14507;52.418;13.398;2022-08-01T00:09:59;5.25;;;2.78;;
26951;SDS011;14507;52.418;13.398;2022-08-01T00:12:24;7.18;;;2.63;;
26951;SDS011;14507;52.418;13.398;2022-08-01T00:14:50;5.90;;;3.00;;
26951;SDS011;14507;52.418;13.398;2022-08-01T00:17:16;5.85;;;2.78;;
26951;SDS011;14507;52.418;13.398;2022-08-01T00:19:41;3.85;;;2.40;;
26951;SDS011;14507;52.418;13.398;2022-08-01T00:22:07;5.20;;;3.10;;
26951;SDS011;14507;52.418;13.398;2022-08-01T00:24:32;5.03;;;3.05;;
26951;SDS011;14507;52.418;13.398;2022-08-01T00:26:58;8.98;;;3.13;;
26951;SDS011;14507;52.418;13.398;2022-08-01T00:29:24;4.82;;;2.88;;
26951;SDS011;14507;52.418;13.398;2022-08-01T00:31:49;5.53;;;2.75;;
26951;SDS011;14507;52.418;13.398;2022-08-01T00:34:15;6.70;;;3.20;;
26951;SDS011;14507;52.418;13.398;2022-08-01T00:36:40;6.47;;;2.65;;
26951;SDS011;14507;52.418;13.398;2022-08-01T00:39:06;4.72;;;2.60;;
26951;SDS011;14507;52.418;13.398;2022-08-01T00:41:32;5.25;;;2.90;;
26951;SDS011;14507;52.418;13.398;2022-08-01T00:43:57;7.18;;;3.30;;
26951;SDS011;14507;52.418;13.398;2022-08-01T00:46:23;4.78;;;3.17;;
26951;SDS011;14507;52.418;13.398;2022-08-01T00:48:48;5.78;;;3.13;;
26951;SDS011;14507;52.418;13.398;2022-08-01T00:51:14;5.18;;;3.20;;
26951;SDS011;14507;52.418;13.398;2022-08-01T00:53:40;5.75;;;3.15;;
26951;SDS011;14507;52.418;13.398;2022-08-01T00:56:06;4.20;;;2.85;;
26951;SDS011;14507;52.418;13.398;2022-08-01T00:58:32;6.22;;;3.70;;
26951;SDS011;14507;52.418;13.398;2022-08-01T01:00:59;6.38;;;3.15;;
26951;SDS011;14507;52.418;13.398;2022-08-01T01:03:27;4.75;;;3.00;;
26951;SDS011;14507;52.418;13.398;2022-08-01T01:06:01;5.72;;;3.15;;
26951;SDS011;14507;52.418;13.398;2022-08-01T01:08:41;5.25;;;3.30;;
26951;SDS011;14507;52.418;13.398;2022-08-01T01:11:24;8.65;;;3.53;;
26951;SDS011;14507;52.418;13.398;2022-08-01T01:13:54;8.35;;;3.85;;
26951;SDS011;14507;52.418;13.398;2022-08-01T01:16:25;5.68;;;3.58;;
26951;SDS011;14507;52.418;13.398;2022-08-01T01:18:55;5.65;;;2.90;;
26951;SDS011;14507;52.418;13.398;2022-08-01T01:30:01;3.25;;;2.55;;
26951;SDS011;14507;52.418;13.398;2022-08-01T01:32:49;4.95;;;2.80;;
26951;SDS011;14507;52.418;13.398;2022-08-01T01:35:19;5.63;;;2.65;;
26951;SDS011;14507;52.418;13.398;2022-08-01T01:37:53;4.53;;;3.10;;
26951;SDS011;14507;52.418;13.398;2022-08-01T01:40:22;5.78;;;2.97;;
26951;SDS011;14507;52.418;13.398;2022-08-01T01:42:50;3.83;;;2.55;;
26951;SDS011;14507;52.418;13.398;2022-08-01T01:45:16;6.72;;;3.50;;
26951;SDS011;14507;52.418;13.398;2022-08-01T01:47:44;6.57;;;3.40;;
26951;SDS011;14507;52.418;13.398;2022-08-01T01:50:11;5.68;;;2.78;;
26951;SDS011;14507;52.418;13.398;2022-08-01T01:52:38;4.57;;;2.80;;
26951;SDS011;14507;52.418;13.398;2022-08-01T01:55:05;5.95;;;3.22;;
26951;SDS011;14507;52.418;13.398;2022-08-01T01:57:35;6.30;;;3.00;;
26951;SDS011;14507;52.418;13.398;2022-08-01T02:00:04;5.00;;;2.85;;
26951;SDS011;14507;52.418;13.398;2022-08-01T02:02:32;4.63;;;3.08;;
26951;SDS011;14507;52.418;13.398;2022-08-01T02:05:01;4.85;;;2.90;;
26951;SDS011;14507;52.418;13.398;2022-08-01T02:07:27;7.15;;;3.38;;
26951;SDS011;14507;52.418;13.398;2022-08-01T02:09:54;5.13;;;2.92;;
26951;SDS011;14507;52.418;13.398;2022-08-01T02:12:20;4.63;;;3.22;;
26951;SDS011;14507;52.418;13.398;2022-08-01T02:14:49;6.90;;;3.28;;
26951;SDS011;14507;52.418;13.398;2022-08-01T02:17:18;5.82;;;2.75;;
26951;SDS011;14507;52.418;13.398;2022-08-01T02:19:46;5.13;;;2.90;;
26951;SDS011;14507;52.418;13.398;2022-08-01T02:22:21;6.22;;;3.33;;
26951;SDS011;14507;52.418;13.398;2022-08-01T02:25:19;4.80;;;3.03;;
26951;SDS011;14507;52.418;13.398;2022-08-01T02:27:50;6.25;;;3.20;;
26951;SDS011;14507;52.418;13.398;2022-08-01T02:30:20;5.50;;;2.67;;
26951;SDS011;14507;52.418;13.398;2022-08-01T02:32:53;4.35;;;2.88;;
26951;SDS011;14507;52.418;13.398;2022-08-01T02:35:37;4.78;;;3.40;;
26951;SDS011;14507;52.418;13.398;2022-08-01T02:38:05;4.85;;;3.10;;
26951;SDS011;14507;52.418;13.398;2022-08-01T02:40:35;6.53;;;3.17;;
26951;SDS011;14507;52.418;13.398;2022-08-01T02:43:05;5.28;;;3.40;;
26951;SDS011;14507;52.418;13.398;2022-08-01T02:48:07;6.93;;;3.20;;
26951;SDS011;14507;52.418;13.398;2022-08-01T02:50:35;5.45;;;3.20;;
26951;SDS011;14507;52.418;13.398;2022-08-01T02:53:02;5.20;;;3.20;;
26951;SDS011;14507;52.418;13.398;2022-08-01T02:55:31;4.68;;;3.03;;
26951;SDS011;14507;52.418;13.398;2022-08-01T02:57:59;5.95;;;3.10;;
26951;SDS011;14507;52.418;13.398;2022-08-01T03:00:26;8.10;;;3.10;;
26951;SDS011;14507;52.418;13.398;2022-08-01T03:02:52;6.05;;;3.00;;
26951;SDS011;14507;52.418;13.398;2022-08-01T03:05:19;8.33;;;3.20;;
26951;SDS011;14507;52.418;13.398;2022-08-01T03:07:47;5.70;;;3.30;;
26951;SDS011;14507;52.418;13.398;2022-08-01T03:10:13;4.28;;;3.08;;
26951;SDS011;14507;52.418;13.398;2022-08-01T03:12:41;5.85;;;3.25;;
26951;SDS011;14507;52.418;13.398;2022-08-01T03:15:08;8.52;;;3.40;;
26951;SDS011;14507;52.418;13.398;2022-08-01T03:17:35;5.93;;;3.23;;
26951;SDS011;14507;52.418;13.398;2022-08-01T03:20:04;5.80;;;3.40;;
26951;SDS011;14507;52.418;13.398;2022-08-01T03:22:31;5.97;;;3.22;;
26951;SDS011;14507;52.418;13.398;2022-08-01T03:24:58;6.47;;;3.35;;
26951;SDS011;14507;52.418;13.398;2022-08-01T03:29:55;5.30;;;3.70;;
26951;SDS011;14507;52.418;13.398;2022-08-01T03:32:23;8.32;;;4.13;;
26951;SDS011;14507;52.418;13.398;2022-08-01T03:34:50;7.50;;;5.13;;
26951;SDS011;14507;52.418;13.398;2022-08-01T03:37:21;8.23;;;4.40;;
26951;SDS011;14507;52.418;13.398;2022-08-01T03:40:09;7.25;;;4.22;;
26951;SDS011;14507;52.418;13.398;2022-08-01T03:42:44;6.20;;;4.32;;
26951;SDS011;14507;52.418;13.398;2022-08-01T03:45:15;7.82;;;4.05;;
26951;SDS011;14507;52.418;13.398;2022-08-01T03:47:48;5.63;;;3.78;;
26951;SDS011;14507;52.418;13.398;2022-08-01T03:50:17;8.10;;;3.53;;
26951;SDS011;14507;52.418;13.398;2022-08-01T03:52:46;7.07;;;3.55;;
26951;SDS011;14507;52.418;13.398;2022-08-01T03:55:15;7.13;;;3.83;;
26951;SDS011;14507;52.418;13.398;2022-08-01T03:57:41;6.53;;;3.75;;
26951;SDS011;14507;52.418;13.398;2022-08-01T04:00:09;5.97;;;3.53;;
26951;SDS011;14507;52.418;13.398;2022-08-01T04:02:35;6.75;;;3.70;;
26951;SDS011;14507;52.418;13.398;2022-08-01T04:05:02;4.28;;;3.45;;
26951;SDS011;14507;52.418;13.398;2022-08-01T04:07:32;7.20;;;4.10;;
26951;SDS011;14507;52.418;13.398;2022-08-01T04:10:01;6.07;;;3.72;;
26951;SDS011;14507;52.418;13.398;2022-08-01T04:12:26;5.95;;;3.65;;
26951;SDS011;14507;52.418;13.398;2022-08-01T04:14:52;5.78;;;3.63;;
26951;SDS011;14507;52.418;13.398;2022-08-01T04:17:18;8.35;;;4.93;;
26951;SDS011;14507;52.418;13.398;2022-08-01T04:19:44;7.07;;;4.68;;
26951;SDS011;14507;52.418;13.398;2022-08-01T04:22:10;7.13;;;4.47;;
26951;SDS011;14507;52.418;13.398;2022-08-01T04:27:06;7.07;;;4.30;;
26951;SDS011;14507;52.418;13.398;2022-08-01T04:29:36;5.40;;;4.20;;
26951;SDS011;14507;52.418;13.398;2022-08-01T04:32:04;7.82;;;4.97;;
26951;SDS011;14507;52.418;13.398;2022-08-01T04:36:58;8.23;;;5.20;;
26951;SDS011;14507;52.418;13.398;2022-08-01T04:39:26;10.20;;;4.90;;
26951;SDS011;14507;52.418;13.398;2022-08-01T04:41:53;7.15;;;4.35;;
26951;SDS011;14507;52.418;13.398;2022-08-01T04:44:22;8.88;;;4.85;;
26951;SDS011;14507;52.418;13.398;2022-08-01T04:46:48;7.10;;;5.05;;
26951;SDS011;14507;52.418;13.398;2022-08-01T04:49:15;7.80;;;4.50;;
26951;SDS011;14507;52.418;13.398;2022-08-01T04:51:54;7.20;;;5.18;;
26951;SDS011;14507;52.418;13.398;2022-08-01T04:54:28;8.07;;;5.35;;
26951;SDS011;14507;52.418;13.398;2022-08-01T04:56:58;7.60;;;5.20;;
26951;SDS011;14507;52.418;13.398;2022-08-01T04:59:28;6.38;;;4.43;;
26951;SDS011;14507;52.418;13.398;2022-08-01T05:02:07;7.22;;;4.47;;
26951;SDS011;14507;52.418;13.398;2022-08-01T05:04:38;6.82;;;5.20;;
26951;SDS011;14507;52.418;13.398;2022-08-01T05:07:04;8.35;;;5.00;;
26951;SDS011;14507;52.418;13.398;2022-08-01T05:09:31;8.18;;;4.68;;
26951;SDS011;14507;52.418;13.398;2022-08-01T05:11:58;8.15;;;4.55;;
26951;SDS011;14507;52.418;13.398;2022-08-01T05:14:25;8.80;;;5.93;;
26951;SDS011;14507;52.418;13.398;2022-08-01T05:16:51;7.78;;;5.93;;
26951;SDS011;14507;52.418;13.398;2022-08-01T05:19:17;10.38;;;6.68;;
26951;SDS011;14507;52.418;13.398;2022-08-01T05:21:43;15.50;;;7.07;;
26951;SDS011;14507;52.418;13.398;2022-08-01T05:24:08;7.93;;;6.20;;
26951;SDS011;14507;52.418;13.398;2022-08-01T05:26:34;8.55;;;6.07;;
26951;SDS011;14507;52.418;13.398;2022-08-01T05:29:00;9.88;;;5.95;;
26951;SDS011;14507;52.418;13.398;2022-08-01T05:31:26;9.05;;;5.40;;
26951;SDS011;14507;52.418;13.398;2022-08-01T05:33:52;10.30;;;5.88;;
26951;SDS011;14507;52.418;13.398;2022-08-01T05:36:18;9.05;;;5.82;;
26951;SDS011;14507;52.418;13.398;2022-08-01T05:38:43;10.82;;;6.10;;
26951;SDS011;14507;52.418;13.398;2022-08-01T05:41:10;7.78;;;4.95;;
26951;SDS011;14507;52.418;13.398;2022-08-01T05:43:35;5.60;;;4.40;;
26951;SDS011;14507;52.418;13.398;2022-08-01T05:46:01;9.48;;;5.30;;
26951;SDS011;14507;52.418;13.398;2022-08-01T05:48:27;7.38;;;4.80;;
26951;SDS011;14507;52.418;13.398;2022-08-01T05:50:53;8.57;;;5.28;;
26951;SDS011;14507;52.418;13.398;2022-08-01T05:53:19;6.35;;;4.65;;
26951;SDS011;14507;52.418;13.398;2022-08-01T05:55:45;8.70;;;3.85;;
26951;SDS011;14507;52.418;13.398;2022-08-01T05:58:11;6.65;;;3.95;;
26951;SDS011;14507;52.418;13.398;2022-08-01T06:00:36;7.90;;;3.35;;
26951;SDS011;14507;52.418;13.398;2022-08-01T06:03:02;4.88;;;3.30;;
26951;SDS011;14507;52.418;13.398;2022-08-01T06:05:28;9.60;;;3.80;;
26951;SDS011;14507;52.418;13.398;2022-08-01T06:07:53;4.80;;;3.00;;
26951;SDS011;14507;52.418;13.398;2022-08-01T06:10:19;8.73;;;3.42;;
26951;SDS011;14507;52.418;13.398;2022-08-01T06:12:45;6.18;;;3.70;;
26951;SDS011;14507;52.418;13.398;2022-08-01T06:15:11;6.18;;;3.63;;
26951;SDS011;14507;52.418;13.398;2022-08-01T06:17:36;4.38;;;3.22;;
26951;SDS011;14507;52.418;13.398;2022-08-01T06:20:03;6.10;;;3.00;;
26951;SDS011;14507;52.418;13.398;2022-08-01T06:22:29;4.95;;;3.20;;
26951;SDS011;14507;52.418;13.398;2022-08-01T06:24:54;5.13;;;3.13;;
26951;SDS011;14507;52.418;13.398;2022-08-01T06:27:20;5.18;;;3.20;;
26951;SDS011;14507;52.418;13.398;2022-08-01T06:29:46;5.60;;;2.78;;
26951;SDS011;14507;52.418;13.398;2022-08-01T06:32:11;4.65;;;2.90;;
26951;SDS011;14507;52.418;13.398;2022-08-01T06:34:37;5.53;;;2.80;;
26951;SDS011;14507;52.418;13.398;2022-08-01T06:37:03;5.03;;;2.78;;
26951;SDS011;14507;52.418;13.398;2022-08-01T06:39:28;3.47;;;2.72;;
26951;SDS011;14507;52.418;13.398;2022-08-01T06:41:54;3.53;;;2.55;;
26951;SDS011;14507;52.418;13.398;2022-08-01T06:44:19;3.50;;;2.08;;
26951;SDS011;14507;52.418;13.398;2022-08-01T06:46:45;2.63;;;1.98;;
26951;SDS011;14507;52.418;13.398;2022-08-01T06:49:10;5.72;;;2.42;;
26951;SDS011;14507;52.418;13.398;2022-08-01T06:51:36;4.03;;;2.35;;
26951;SDS011;14507;52.418;13.398;2022-08-01T06:54:01;3.53;;;2.30;;
26951;SDS011;14507;52.418;13.398;2022-08-01T06:56:27;4.25;;;2.15;;
26951;SDS011;14507;52.418;13.398;2022-08-01T06:58:53;3.70;;;2.25;;
26951;SDS011;14507;52.418;13.398;2022-08-01T07:01:24;2.80;;;1.90;;
26951;SDS011;14507;52.418;13.398;2022-08-01T07:03:49;4.45;;;2.38;;
26951;SDS011;14507;52.418;13.398;2022-08-01T07:06:15;3.55;;;2.05;;
26951;SDS011;14507;52.418;13.398;2022-08-01T07:08:40;3.58;;;1.80;;
26951;SDS011;14507;52.418;13.398;2022-08-01T07:11:06;3.50;;;1.90;;
26951;SDS011;14507;52.418;13.398;2022-08-01T07:13:31;3.53;;;2.00;;
26951;SDS011;14507;52.418;13.398;2022-08-01T07:15:58;3.33;;;1.77;;
26951;SDS011;14507;52.418;13.398;2022-08-01T07:18:23;2.88;;;2.15;;
26951;SDS011;14507;52.418;13.398;2022-08-01T07:20:49;3.45;;;1.80;;
26951;SDS011;14507;52.418;13.398;2022-08-01T07:23:15;2.80;;;1.80;;
26951;SDS011;14507;52.418;13.398;2022-08-01T07:25:41;2.95;;;1.65;;
26951;SDS011;14507;52.418;13.398;2022-08-01T07:28:07;3.90;;;1.73;;
26951;SDS011;14507;52.418;13.398;2022-08-01T07:30:33;3.15;;;2.00;;
26951;SDS011;14507;52.418;13.398;2022-08-01T07:32:59;2.50;;;1.70;;
26951;SDS011;14507;52.418;13.398;2022-08-01T07:35:24;2.70;;;1.60;;
26951;SDS011;14507;52.418;13.398;2022-08-01T07:37:50;3.58;;;2.15;;
26951;SDS011;14507;52.418;13.398;2022-08-01T07:40:18;2.67;;;1.77;;
26951;SDS011;14507;52.418;13.398;2022-08-01T07:42:44;3.85;;;1.80;;
26951;SDS011;14507;52.418;13.398;2022-08-01T07:45:11;5.70;;;2.78;;
26951;SDS011;14507;52.418;13.398;2022-08-01T07:47:37;3.25;;;2.55;;
26951;SDS011;14507;52.418;13.398;2022-08-01T07:50:03;3.35;;;2.50;;
26951;SDS011;14507;52.418;13.398;2022-08-01T07:52:30;5.95;;;2.65;;
26951;SDS011;14507;52.418;13.398;2022-08-01T07:54:56;5.53;;;2.65;;
26951;SDS011;14507;52.418;13.398;2022-08-01T07:57:22;4.60;;;2.70;;
26951;SDS011;14507;52.418;13.398;2022-08-01T07:59:48;4.68;;;2.25;;
26951;SDS011;14507;52.418;13.398;2022-08-01T08:02:14;3.78;;;2.70;;
26951;SDS011;14507;52.418;13.398;2022-08-01T08:04:40;3.65;;;2.50;;
26951;SDS011;14507;52.418;13.398;2022-08-01T08:07:05;3.00;;;2.35;;
26951;SDS011;14507;52.418;13.398;2022-08-01T08:09:31;4.47;;;2.80;;
26951;SDS011;14507;52.418;13.398;2022-08-01T08:11:57;4.00;;;2.97;;
26951;SDS011;14507;52.418;13.398;2022-08-01T08:14:23;4.43;;;3.00;;
26951;SDS011;14507;52.418;13.398;2022-08-01T08:16:50;4.82;;;2.75;;
26951;SDS011;14507;52.418;13.398;2022-08-01T08:19:16;4.53;;;3.10;;
26951;SDS011;14507;52.418;13.398;2022-08-01T08:21:42;4.68;;;3.17;;
26951;SDS011;14507;52.418;13.398;2022-08-01T08:24:08;5.82;;;3.90;;
26951;SDS011;14507;52.418;13.398;2022-08-01T08:26:44;7.32;;;3.95;;
26951;SDS011;14507;52.418;13.398;2022-08-01T08:29:10;7.53;;;4.38;;
26951;SDS011;14507;52.418;13.398;2022-08-01T08:31:36;7.30;;;4.45;;
26951;SDS011;14507;52.418;13.398;2022-08-01T08:34:02;6.57;;;4.95;;
26951;SDS011;14507;52.418;13.398;2022-08-01T08:36:27;9.32;;;4.50;;
26951;SDS011;14507;52.418;13.398;2022-08-01T08:38:53;6.30;;;4.45;;
26951;SDS011;14507;52.418;13.398;2022-08-01T08:41:19;5.13;;;3.90;;
26951;SDS011;14507;52.418;13.398;2022-08-01T08:43:45;7.70;;;4.35;;
26951;SDS011;14507;52.418;13.398;2022-08-01T08:46:12;4.93;;;3.42;;
26951;SDS011;14507;52.418;13.398;2022-08-01T08:48:39;4.03;;;2.67;;
26951;SDS011;14507;52.418;13.398;2022-08-01T08:51:05;4.07;;;2.17;;
26951;SDS011;14507;52.418;13.398;2022-08-01T08:53:33;3.05;;;2.17;;
26951;SDS011;14507;52.418;13.398;2022-08-01T08:56:00;6.23;;;2.47;;
26951;SDS011;14507;52.418;13.398;2022-08-01T08:58:27;3.78;;;1.80;;
26951;SDS011;14507;52.418;13.398;2022-08-01T09:00:53;6.65;;;1.92;;
26951;SDS011;14507;52.418;13.398;2022-08-01T09:03:19;2.33;;;1.73;;
26951;SDS011;14507;52.418;13.398;2022-08-01T09:05:45;4.15;;;2.17;;
26951;SDS011;14507;52.418;13.398;2022-08-01T09:08:10;5.70;;;1.50;;
26951;SDS011;14507;52.418;13.398;2022-08-01T09:10:37;5.53;;;1.35;;
26951;SDS011;14507;52.418;13.398;2022-08-01T09:18:08;3.85;;;1.00;;
26951;SDS011;14507;52.418;13.398;2022-08-01T09:20:50;1.77;;;0.80;;
26951;SDS011;14507;52.418;13.398;2022-08-01T09:23:31;2.05;;;1.00;;
26951;SDS011;14507;52.418;13.398;2022-08-01T09:25:58;2.38;;;1.17;;
26951;SDS011;14507;52.418;13.398;2022-08-01T09:28:27;1.67;;;1.05;;
26951;SDS011;14507;52.418;13.398;2022-08-01T09:30:55;1.95;;;1.20;;
26951;SDS011;14507;52.418;13.398;2022-08-01T09:33:21;2.15;;;1.30;;
26951;SDS011;14507;52.418;13.398;2022-08-01T09:35:53;3.17;;;1.30;;
26951;SDS011;14507;52.418;13.398;2022-08-01T09:38:22;2.13;;;1.27;;
26951;SDS011;14507;52.418;13.398;2022-08-01T09:40:50;2.30;;;1.00;;
26951;SDS011;14507;52.418;13.398;2022-08-01T09:43:21;3.67;;;1.58;;
26951;SDS011;14507;52.418;13.398;2022-08-01T09:45:48;2.95;;;1.20;;
26951;SDS011;14507;52.418;13.398;2022-08-01T09:48:14;3.95;;;1.60;;
26951;SDS011;14507;52.418;13.398;2022-08-01T09:50:42;4.82;;;1.33;;
26951;SDS011;14507;52.418;13.398;2022-08-01T09:53:09;2.83;;;1.40;;
26951;SDS011;14507;52.418;13.398;2022-08-01T09:55:37;2.10;;;1.30;;
26951;SDS011;14507;52.418;13.398;2022-08-01T09:58:03;3.40;;;1.50;;
26951;SDS011;14507;52.418;13.398;2022-08-01T10:00:30;5.50;;;1.50;;
26951;SDS011;14507;52.418;13.398;2022-08-01T10:02:59;2.65;;;1.30;;
26951;SDS011;14507;52.418;13.398;2022-08-01T10:05:34;5.30;;;1.47;;
26951;SDS011;14507;52.418;13.398;2022-08-01T10:08:01;5.57;;;1.13;;
26951;SDS011;14507;52.418;13.398;2022-08-01T10:10:28;13.55;;;2.22;;
26951;SDS011;14507;52.418;13.398;2022-08-01T10:12:56;6.90;;;1.50;;
26951;SDS011;14507;52.418;13.398;2022-08-01T10:15:23;2.17;;;1.23;;
26951;SDS011;14507;52.418;13.398;2022-08-01T10:17:52;6.65;;;1.60;;
26951;SDS011;14507;52.418;13.398;2022-08-01T10:20:22;2.13;;;1.17;;
26951;SDS011;14507;52.418;13.398;2022-08-01T10:22:57;8.43;;;1.27;;
26951;SDS011;14507;52.418;13.398;2022-08-01T10:25:26;3.72;;;1.63;;
26951;SDS011;14507;52.418;13.398;2022-08-01T10:27:53;1.77;;;1.05;;
26951;SDS011;14507;52.418;13.398;2022-08-01T10:30:22;2.22;;;1.10;;
26951;SDS011;14507;52.418;13.398;2022-08-01T10:32:49;4.38;;;1.60;;
26951;SDS011;14507;52.418;13.398;2022-08-01T10:35:17;2.85;;;1.50;;
26951;SDS011;14507;52.418;13.398;2022-08-01T10:37:44;2.70;;;1.20;;
26951;SDS011;14507;52.418;13.398;2022-08-01T10:40:15;3.20;;;1.02;;
26951;SDS011;14507;52.418;13.398;2022-08-01T10:42:42;4.00;;;1.10;;
26951;SDS011;14507;52.418;13.398;2022-08-01T10:45:13;1.77;;;0.88;;
26951;SDS011;14507;52.418;13.398;2022-08-01T10:47:42;1.77;;;1.00;;
26951;SDS011;14507;52.418;13.398;2022-08-01T10:50:18;1.83;;;1.20;;
26951;SDS011;14507;52.418;13.398;2022-08-01T10:53:03;3.17;;;1.10;;
26951;SDS011;14507;52.418;13.398;2022-08-01T10:55:50;2.80;;;1.10;;
26951;SDS011;14507;52.418;13.398;2022-08-01T10:58:29;2.63;;;1.00;;
26951;SDS011;14507;52.418;13.398;2022-08-01T11:03:57;2.97;;;0.95;;
26951;SDS011;14507;52.418;13.398;2022-08-01T11:06:24;1.88;;;0.90;;
26951;SDS011;14507;52.418;13.398;2022-08-01T11:08:59;2.58;;;1.00;;
26951;SDS011;14507;52.418;13.398;2022-08-01T11:11:27;1.90;;;0.95;;
26951;SDS011;14507;52.418;13.398;2022-08-01T11:16:32;1.83;;;0.88;;
26951;SDS011;14507;52.418;13.398;2022-08-01T11:19:00;2.35;;;1.05;;
26951;SDS011;14507;52.418;13.398;2022-08-01T11:24:52;3.67;;;0.95;;
26951;SDS011;14507;52.418;13.398;2022-08-01T11:32:33;2.45;;;1.10;;
26951;SDS011;14507;52.418;13.398;2022-08-01T11:35:11;3.72;;;0.85;;
26951;SDS011;14507;52.418;13.398;2022-08-01T11:37:37;1.58;;;0.88;;
26951;SDS011;14507;52.418;13.398;2022-08-01T11:42:49;3.42;;;1.17;;
26951;SDS011;14507;52.418;13.398;2022-08-01T11:48:27;1.58;;;0.80;;
26951;SDS011;14507;52.418;13.398;2022-08-01T11:50:53;1.20;;;0.88;;
26951;SDS011;14507;52.418;13.398;2022-08-01T11:53:20;2.15;;;1.00;;
26951;SDS011;14507;52.418;13.398;2022-08-01T11:55:48;3.50;;;1.25;;
26951;SDS011;14507;52.418;13.398;2022-08-01T11:58:16;2.03;;;1.23;;
26951;SDS011;14507;52.418;13.398;2022-08-01T12:00:53;7.38;;;1.58;;
26951;SDS011;14507;52.418;13.398;2022-08-01T12:03:24;1.80;;;1.05;;
26951;SDS011;14507;52.418;13.398;2022-08-01T12:05:52;3.40;;;1.10;;
26951;SDS011;14507;52.418;13.398;2022-08-01T12:08:29;2.22;;;0.90;;
26951;SDS011;14507;52.418;13.398;2022-08-01T12:11:00;2.03;;;0.80;;
26951;SDS011;14507;52.418;13.398;2022-08-01T12:13:26;3.35;;;1.10;;
26951;SDS011;14507;52.418;13.398;2022-08-01T12:15:53;1.48;;;0.90;;
26951;SDS011;14507;52.418;13.398;2022-08-01T12:18:19;1.70;;;0.98;;
26951;SDS011;14507;52.418;13.398;2022-08-01T12:20:45;4.32;;;0.70;;
26951;SDS011;14507;52.418;13.398;2022-08-01T12:23:12;5.80;;;1.00;;
26951;SDS011;14507;52.418;13.398;2022-08-01T12:25:39;2.45;;;1.00;;
26951;SDS011;14507;52.418;13.398;2022-08-01T12:28:08;1.92;;;1.00;;
26951;SDS011;14507;52.418;13.398;2022-08-01T12:30:35;2.50;;;0.90;;
26951;SDS011;14507;52.418;13.398;2022-08-01T12:33:02;1.45;;;0.75;;
26951;SDS011;14507;52.418;13.398;2022-08-01T12:35:29;1.33;;;0.70;;
26951;SDS011;14507;52.418;13.398;2022-08-01T12:37:57;1.10;;;0.70;;
26951;SDS011;14507;52.418;13.398;2022-08-01T12:42:55;3.28;;;0.70;;
26951;SDS011;14507;52.418;13.398;2022-08-01T12:48:10;1.70;;;1.10;;
26951;SDS011;14507;52.418;13.398;2022-08-01T12:50:40;1.77;;;0.65;;
26951;SDS011;14507;52.418;13.398;2022-08-01T12:53:08;2.65;;;0.80;;
26951;SDS011;14507;52.418;13.398;2022-08-01T12:55:43;2.97;;;1.05;;
26951;SDS011;14507;52.418;13.398;2022-08-01T12:58:11;6.18;;;1.10;;
26951;SDS011;14507;52.418;13.398;2022-08-01T13:00:39;2.15;;;0.70;;
26951;SDS011;14507;52.418;13.398;2022-08-01T13:03:13;1.63;;;0.70;;
26951;SDS011;14507;52.418;13.398;2022-08-01T13:05:51;1.90;;;0.73;;
26951;SDS011;14507;52.418;13.398;2022-08-01T13:08:25;2.55;;;0.73;;
26951;SDS011;14507;52.418;13.398;2022-08-01T13:11:04;3.00;;;0.88;;
26951;SDS011;14507;52.418;13.398;2022-08-01T13:13:38;4.80;;;1.10;;
26951;SDS011;14507;52.418;13.398;2022-08-01T13:16:13;3.15;;;1.00;;
26951;SDS011;14507;52.418;13.398;2022-08-01T13:18:40;3.30;;;1.13;;
26951;SDS011;14507;52.418;13.398;2022-08-01T13:21:09;1.25;;;0.57;;
26951;SDS011;14507;52.418;13.398;2022-08-01T13:23:37;2.25;;;0.75;;
26951;SDS011;14507;52.418;13.398;2022-08-01T13:26:04;2.47;;;0.70;;
26951;SDS011;14507;52.418;13.398;2022-08-01T13:28:30;1.25;;;0.73;;
26951;SDS011;14507;52.418;13.398;2022-08-01T13:31:00;3.17;;;0.80;;
26951;SDS011;14507;52.418;13.398;2022-08-01T13:33:38;1.90;;;0.80;;
26951;SDS011;14507;52.418;13.398;2022-08-01T13:36:11;1.23;;;0.70;;
26951;SDS011;14507;52.418;13.398;2022-08-01T13:38:38;4.97;;;0.70;;
26951;SDS011;14507;52.418;13.398;2022-08-01T13:41:23;0.75;;;0.45;;
26951;SDS011;14507;52.418;13.398;2022-08-01T13:43:49;1.27;;;0.70;;
26951;SDS011;14507;52.418;13.398;2022-08-01T13:46:15;2.05;;;0.70;;
26951;SDS011;14507;52.418;13.398;2022-08-01T13:48:41;2.65;;;0.60;;
26951;SDS011;14507;52.418;13.398;2022-08-01T13:51:06;3.58;;;0.80;;
26951;SDS011;14507;52.418;13.398;2022-08-01T13:53:32;1.17;;;0.60;;
26951;SDS011;14507;52.418;13.398;2022-08-01T13:55:57;1.08;;;0.43;;
26951;SDS011;14507;52.418;13.398;2022-08-01T13:58:23;0.98;;;0.70;;
26951;SDS011;14507;52.418;13.398;2022-08-01T14:00:49;2.22;;;0.50;;
26951;SDS011;14507;52.418;13.398;2022-08-01T14:03:15;1.73;;;0.50;;
26951;SDS011;14507;52.418;13.398;2022-08-01T14:05:41;1.88;;;0.50;;
26951;SDS011;14507;52.418;13.398;2022-08-01T14:08:08;2.30;;;0.63;;
26951;SDS011;14507;52.418;13.398;2022-08-01T14:10:34;2.85;;;0.60;;
26951;SDS011;14507;52.418;13.398;2022-08-01T14:13:00;2.45;;;0.55;;
26951;SDS011;14507;52.418;13.398;2022-08-01T14:15:25;2.47;;;0.90;;
26951;SDS011;14507;52.418;13.398;2022-08-01T14:17:51;1.50;;;0.70;;
26951;SDS011;14507;52.418;13.398;2022-08-01T14:20:17;1.67;;;0.63;;
26951;SDS011;14507;52.418;13.398;2022-08-01T14:22:46;0.85;;;0.38;;
26951;SDS011;14507;52.418;13.398;2022-08-01T14:25:12;2.63;;;0.65;;
26951;SDS011;14507;52.418;13.398;2022-08-01T14:27:37;0.90;;;0.45;;
26951;SDS011;14507;52.418;13.398;2022-08-01T14:30:05;2.28;;;0.43;;
26951;SDS011;14507;52.418;13.398;2022-08-01T14:32:31;1.33;;;0.57;;
26951;SDS011;14507;52.418;13.398;2022-08-01T14:34:58;2.67;;;0.50;;
26951;SDS011;14507;52.418;13.398;2022-08-01T14:37:28;0.60;;;0.40;;
26951;SDS011;14507;52.418;13.398;2022-08-01T14:39:54;1.10;;;0.40;;
26951;SDS011;14507;52.418;13.398;2022-08-01T14:42:23;1.10;;;0.60;;
26951;SDS011;14507;52.418;13.398;2022-08-01T14:44:48;2.00;;;0.70;;
26951;SDS011;14507;52.418;13.398;2022-08-01T14:47:14;1.00;;;0.50;;
26951;SDS011;14507;52.418;13.398;2022-08-01T14:49:40;2.35;;;0.50;;
26951;SDS011;14507;52.418;13.398;2022-08-01T14:52:06;1.02;;;0.50;;
26951;SDS011;14507;52.418;13.398;2022-08-01T14:54:31;1.52;;;0.32;;
26951;SDS011;14507;52.418;13.398;2022-08-01T14:56:57;0.98;;;0.60;;
26951;SDS011;14507;52.418;13.398;2022-08-01T14:59:23;1.92;;;0.52;;
26951;SDS011;14507;52.418;13.398;2022-08-01T15:01:49;0.85;;;0.40;;
26951;SDS011;14507;52.418;13.398;2022-08-01T15:04:14;1.17;;;0.40;;
26951;SDS011;14507;52.418;13.398;2022-08-01T15:06:40;1.15;;;0.47;;
26951;SDS011;14507;52.418;13.398;2022-08-01T15:09:05;2.05;;;0.60;;
26951;SDS011;14507;52.418;13.398;2022-08-01T15:11:31;2.58;;;0.50;;
26951;SDS011;14507;52.418;13.398;2022-08-01T15:13:57;1.15;;;0.68;;
26951;SDS011;14507;52.418;13.398;2022-08-01T15:16:41;7.28;;;0.60;;
26951;SDS011;14507;52.418;13.398;2022-08-01T15:19:06;2.47;;;0.55;;
26951;SDS011;14507;52.418;13.398;2022-08-01T15:21:33;0.95;;;0.40;;
26951;SDS011;14507;52.418;13.398;2022-08-01T15:23:59;2.15;;;0.50;;
26951;SDS011;14507;52.418;13.398;2022-08-01T15:26:24;0.98;;;0.60;;